aviador You're here:

KPSX Decoded Metar

PALACIOS in TX, USA
Report Time2018-02-19 11:53:00
UTC Time2018-02-19 12:06:41
Flight Rules mvfr MVFR
Wind150° at 12 kt
W.Decomp.*RWY 13: 11.5 kt HW 3.5 kt RCW
RWY 17: 11.0 kt HW 4.7 kt LCW
RWY 08: 4.7 kt HW 11.0 kt RCW
W.Rank150° ranks 2
Current wind is above 150° avg. (10.3)
Visibility8047 m
Phenomena:Mist
Clouds:Overcast 019 Hf
Ceiling1,900 ft
Temp20°C (ISA +5)
Dew Point20°C (100% RH)
AAT19.4°C
QNH1014 hPa
Density Alt879 ft
Elevation16 ft
Report Wrong Elevation
Raw Report
METAR KPSX 191153Z AUTO 15012KT 5SM BR OVC019 20/20 A2995 RMK AO2 SLP143
T02000200 10211 20200 53003=

Extra information for KPSX:More info

Metar Taf Metar & Taf Last 4 Metars F.Rules Stats Wind Profile Meteogram Temp Stats Airport Information Weather charts Add Link Nearby VenuesMetar ALERT Operation Metar Decoded Social comments

AIRNAV info for KPSX